sensor_id;sensor_type;location;lat;lon;timestamp;P1;durP1;ratioP1;P2;durP2;ratioP2
66575;SDS011;53428;47.686;16.584;2023-08-06T00:00:05;0.22;;;0.22;;
66575;SDS011;53428;47.686;16.584;2023-08-06T00:05:05;0.10;;;0.10;;
66575;SDS011;53428;47.686;16.584;2023-08-06T00:10:05;0.20;;;0.20;;
66575;SDS011;53428;47.686;16.584;2023-08-06T00:15:04;0.05;;;0.05;;
66575;SDS011;53428;47.686;16.584;2023-08-06T00:20:04;0.10;;;0.10;;
66575;SDS011;53428;47.686;16.584;2023-08-06T00:25:05;0.10;;;0.10;;
66575;SDS011;53428;47.686;16.584;2023-08-06T00:30:05;0.10;;;0.10;;
66575;SDS011;53428;47.686;16.584;2023-08-06T00:35:04;0.10;;;0.10;;
66575;SDS011;53428;47.686;16.584;2023-08-06T00:40:05;0.25;;;0.25;;
66575;SDS011;53428;47.686;16.584;2023-08-06T00:45:06;0.20;;;0.20;;
66575;SDS011;53428;47.686;16.584;2023-08-06T00:50:06;0.20;;;0.20;;
66575;SDS011;53428;47.686;16.584;2023-08-06T00:55:06;0.30;;;0.30;;
66575;SDS011;53428;47.686;16.584;2023-08-06T01:00:06;0.30;;;0.30;;
66575;SDS011;53428;47.686;16.584;2023-08-06T01:05:06;0.98;;;0.40;;
66575;SDS011;53428;47.686;16.584;2023-08-06T01:15:28;0.10;;;0.10;;
66575;SDS011;53428;47.686;16.584;2023-08-06T01:20:31;0.00;;;0.00;;
66575;SDS011;53428;47.686;16.584;2023-08-06T01:25:34;0.20;;;0.20;;
66575;SDS011;53428;47.686;16.584;2023-08-06T01:30:39;0.20;;;0.20;;
66575;SDS011;53428;47.686;16.584;2023-08-06T01:35:40;0.17;;;0.17;;
66575;SDS011;53428;47.686;16.584;2023-08-06T01:40:41;0.20;;;0.20;;
66575;SDS011;53428;47.686;16.584;2023-08-06T01:45:40;0.10;;;0.10;;
66575;SDS011;53428;47.686;16.584;2023-08-06T01:50:40;1.35;;;0.30;;
66575;SDS011;53428;47.686;16.584;2023-08-06T01:55:40;0.10;;;0.10;;
66575;SDS011;53428;47.686;16.584;2023-08-06T02:00:41;0.47;;;0.28;;
66575;SDS011;53428;47.686;16.584;2023-08-06T02:05:40;0.10;;;0.10;;
66575;SDS011;53428;47.686;16.584;2023-08-06T02:10:40;0.30;;;0.30;;
66575;SDS011;53428;47.686;16.584;2023-08-06T02:15:43;0.20;;;0.20;;
66575;SDS011;53428;47.686;16.584;2023-08-06T02:20:43;0.20;;;0.20;;
66575;SDS011;53428;47.686;16.584;2023-08-06T02:25:43;0.20;;;0.20;;
66575;SDS011;53428;47.686;16.584;2023-08-06T02:30:49;2.17;;;0.30;;
66575;SDS011;53428;47.686;16.584;2023-08-06T02:35:49;0.75;;;0.38;;
66575;SDS011;53428;47.686;16.584;2023-08-06T02:40:49;0.17;;;0.17;;
66575;SDS011;53428;47.686;16.584;2023-08-06T02:45:48;0.10;;;0.10;;
66575;SDS011;53428;47.686;16.584;2023-08-06T02:50:47;0.10;;;0.10;;
66575;SDS011;53428;47.686;16.584;2023-08-06T02:55:47;0.28;;;0.10;;
66575;SDS011;53428;47.686;16.584;2023-08-06T03:00:46;0.55;;;0.55;;
66575;SDS011;53428;47.686;16.584;2023-08-06T03:05:55;0.30;;;0.20;;
66575;SDS011;53428;47.686;16.584;2023-08-06T03:10:54;0.20;;;0.13;;
66575;SDS011;53428;47.686;16.584;2023-08-06T03:15:57;0.00;;;0.00;;
66575;SDS011;53428;47.686;16.584;2023-08-06T03:20:57;0.20;;;0.20;;
66575;SDS011;53428;47.686;16.584;2023-08-06T03:26:03;0.30;;;0.30;;
66575;SDS011;53428;47.686;16.584;2023-08-06T03:31:03;3.40;;;0.40;;
66575;SDS011;53428;47.686;16.584;2023-08-06T03:36:03;0.35;;;0.35;;
66575;SDS011;53428;47.686;16.584;2023-08-06T03:41:02;0.73;;;0.40;;
66575;SDS011;53428;47.686;16.584;2023-08-06T03:46:02;2.63;;;0.50;;
66575;SDS011;53428;47.686;16.584;2023-08-06T03:51:01;0.40;;;0.40;;
66575;SDS011;53428;47.686;16.584;2023-08-06T03:56:01;1.60;;;0.60;;
66575;SDS011;53428;47.686;16.584;2023-08-06T04:01:01;0.40;;;0.40;;
66575;SDS011;53428;47.686;16.584;2023-08-06T04:06:04;0.90;;;0.57;;
66575;SDS011;53428;47.686;16.584;2023-08-06T04:11:03;0.47;;;0.47;;
66575;SDS011;53428;47.686;16.584;2023-08-06T04:16:03;0.70;;;0.70;;
66575;SDS011;53428;47.686;16.584;2023-08-06T04:21:02;0.80;;;0.70;;
66575;SDS011;53428;47.686;16.584;2023-08-06T04:26:02;0.50;;;0.50;;
66575;SDS011;53428;47.686;16.584;2023-08-06T04:31:01;0.80;;;0.80;;
66575;SDS011;53428;47.686;16.584;2023-08-06T04:36:01;0.60;;;0.60;;
66575;SDS011;53428;47.686;16.584;2023-08-06T04:41:02;0.90;;;0.90;;
66575;SDS011;53428;47.686;16.584;2023-08-06T04:46:02;1.10;;;0.98;;
66575;SDS011;53428;47.686;16.584;2023-08-06T04:51:01;2.47;;;0.85;;
66575;SDS011;53428;47.686;16.584;2023-08-06T04:56:00;1.40;;;0.70;;
66575;SDS011;53428;47.686;16.584;2023-08-06T05:01:00;2.70;;;0.95;;
66575;SDS011;53428;47.686;16.584;2023-08-06T05:05:59;0.95;;;0.90;;
66575;SDS011;53428;47.686;16.584;2023-08-06T05:10:59;1.38;;;1.13;;
66575;SDS011;53428;47.686;16.584;2023-08-06T05:15:58;1.58;;;1.40;;
66575;SDS011;53428;47.686;16.584;2023-08-06T05:20:57;1.35;;;1.00;;
66575;SDS011;53428;47.686;16.584;2023-08-06T05:25:57;1.15;;;1.05;;
66575;SDS011;53428;47.686;16.584;2023-08-06T05:30:56;1.30;;;1.10;;
66575;SDS011;53428;47.686;16.584;2023-08-06T05:35:55;0.70;;;0.70;;
66575;SDS011;53428;47.686;16.584;2023-08-06T05:40:55;1.38;;;1.30;;
66575;SDS011;53428;47.686;16.584;2023-08-06T05:45:55;1.55;;;1.02;;
66575;SDS011;53428;47.686;16.584;2023-08-06T05:50:55;1.85;;;1.00;;
66575;SDS011;53428;47.686;16.584;2023-08-06T05:55:54;1.10;;;1.00;;
66575;SDS011;53428;47.686;16.584;2023-08-06T06:00:53;1.10;;;1.00;;
66575;SDS011;53428;47.686;16.584;2023-08-06T06:05:53;1.10;;;1.00;;
66575;SDS011;53428;47.686;16.584;2023-08-06T06:10:52;1.33;;;0.90;;
66575;SDS011;53428;47.686;16.584;2023-08-06T06:15:54;1.23;;;1.13;;
66575;SDS011;53428;47.686;16.584;2023-08-06T06:20:54;1.27;;;0.93;;
66575;SDS011;53428;47.686;16.584;2023-08-06T06:25:53;1.13;;;1.08;;
66575;SDS011;53428;47.686;16.584;2023-08-06T06:30:59;0.60;;;0.60;;
66575;SDS011;53428;47.686;16.584;2023-08-06T06:35:59;0.90;;;0.90;;
66575;SDS011;53428;47.686;16.584;2023-08-06T06:40:58;1.20;;;0.90;;
66575;SDS011;53428;47.686;16.584;2023-08-06T06:45:58;0.80;;;0.80;;
66575;SDS011;53428;47.686;16.584;2023-08-06T06:50:58;0.95;;;0.95;;
66575;SDS011;53428;47.686;16.584;2023-08-06T06:56:01;0.80;;;0.80;;
66575;SDS011;53428;47.686;16.584;2023-08-06T07:01:02;0.60;;;0.60;;
66575;SDS011;53428;47.686;16.584;2023-08-06T07:06:02;0.82;;;0.82;;
66575;SDS011;53428;47.686;16.584;2023-08-06T07:11:02;0.90;;;0.77;;
66575;SDS011;53428;47.686;16.584;2023-08-06T07:16:03;1.73;;;0.70;;
66575;SDS011;53428;47.686;16.584;2023-08-06T07:21:02;0.70;;;0.70;;
66575;SDS011;53428;47.686;16.584;2023-08-06T07:26:01;0.70;;;0.70;;
66575;SDS011;53428;47.686;16.584;2023-08-06T07:31:02;0.63;;;0.60;;
66575;SDS011;53428;47.686;16.584;2023-08-06T07:36:08;0.70;;;0.70;;
66575;SDS011;53428;47.686;16.584;2023-08-06T07:41:09;2.50;;;0.70;;
66575;SDS011;53428;47.686;16.584;2023-08-06T07:46:10;0.90;;;0.90;;
66575;SDS011;53428;47.686;16.584;2023-08-06T07:51:12;0.50;;;0.50;;
66575;SDS011;53428;47.686;16.584;2023-08-06T07:56:12;0.50;;;0.50;;
66575;SDS011;53428;47.686;16.584;2023-08-06T08:01:11;2.03;;;0.82;;
66575;SDS011;53428;47.686;16.584;2023-08-06T08:06:11;0.77;;;0.77;;
66575;SDS011;53428;47.686;16.584;2023-08-06T08:11:10;0.57;;;0.57;;
66575;SDS011;53428;47.686;16.584;2023-08-06T08:16:10;0.52;;;0.52;;
66575;SDS011;53428;47.686;16.584;2023-08-06T08:21:09;3.75;;;0.60;;
66575;SDS011;53428;47.686;16.584;2023-08-06T08:26:09;0.60;;;0.60;;
66575;SDS011;53428;47.686;16.584;2023-08-06T08:31:09;0.73;;;0.73;;
66575;SDS011;53428;47.686;16.584;2023-08-06T08:36:10;0.70;;;0.70;;
66575;SDS011;53428;47.686;16.584;2023-08-06T08:41:09;1.00;;;0.90;;
66575;SDS011;53428;47.686;16.584;2023-08-06T08:46:10;1.00;;;0.90;;
66575;SDS011;53428;47.686;16.584;2023-08-06T08:51:11;1.10;;;1.00;;
66575;SDS011;53428;47.686;16.584;2023-08-06T08:56:12;1.13;;;1.08;;
66575;SDS011;53428;47.686;16.584;2023-08-06T09:01:13;1.20;;;0.85;;
66575;SDS011;53428;47.686;16.584;2023-08-06T09:06:14;0.77;;;0.77;;
66575;SDS011;53428;47.686;16.584;2023-08-06T09:11:16;0.90;;;0.90;;
66575;SDS011;53428;47.686;16.584;2023-08-06T09:16:19;0.90;;;0.90;;
66575;SDS011;53428;47.686;16.584;2023-08-06T09:21:18;1.92;;;1.83;;
66575;SDS011;53428;47.686;16.584;2023-08-06T09:26:18;1.10;;;1.00;;
66575;SDS011;53428;47.686;16.584;2023-08-06T09:31:17;1.15;;;1.05;;
66575;SDS011;53428;47.686;16.584;2023-08-06T09:36:16;1.30;;;1.20;;
66575;SDS011;53428;47.686;16.584;2023-08-06T09:41:26;4.45;;;1.40;;
66575;SDS011;53428;47.686;16.584;2023-08-06T09:46:28;1.42;;;1.33;;
66575;SDS011;53428;47.686;16.584;2023-08-06T09:51:32;2.45;;;1.55;;
66575;SDS011;53428;47.686;16.584;2023-08-06T09:56:31;1.70;;;1.50;;
66575;SDS011;53428;47.686;16.584;2023-08-06T10:01:36;1.55;;;1.45;;
66575;SDS011;53428;47.686;16.584;2023-08-06T10:06:36;1.42;;;1.30;;
66575;SDS011;53428;47.686;16.584;2023-08-06T10:11:38;1.42;;;1.15;;
66575;SDS011;53428;47.686;16.584;2023-08-06T10:16:39;3.22;;;1.42;;
66575;SDS011;53428;47.686;16.584;2023-08-06T10:21:39;1.05;;;0.90;;
66575;SDS011;53428;47.686;16.584;2023-08-06T10:26:39;9.20;;;1.60;;
66575;SDS011;53428;47.686;16.584;2023-08-06T10:37:09;1.40;;;1.17;;
66575;SDS011;53428;47.686;16.584;2023-08-06T10:42:18;1.25;;;1.00;;
66575;SDS011;53428;47.686;16.584;2023-08-06T10:47:27;0.93;;;0.93;;
66575;SDS011;53428;47.686;16.584;2023-08-06T10:52:27;2.72;;;1.38;;
66575;SDS011;53428;47.686;16.584;2023-08-06T10:57:26;2.55;;;1.30;;
66575;SDS011;53428;47.686;16.584;2023-08-06T11:02:25;1.55;;;1.10;;
66575;SDS011;53428;47.686;16.584;2023-08-06T11:07:25;1.77;;;0.98;;
66575;SDS011;53428;47.686;16.584;2023-08-06T11:12:28;1.73;;;1.30;;
66575;SDS011;53428;47.686;16.584;2023-08-06T11:17:28;1.67;;;1.15;;
66575;SDS011;53428;47.686;16.584;2023-08-06T11:22:29;1.70;;;1.20;;
66575;SDS011;53428;47.686;16.584;2023-08-06T11:27:28;1.33;;;0.90;;
66575;SDS011;53428;47.686;16.584;2023-08-06T11:32:28;1.00;;;0.85;;
66575;SDS011;53428;47.686;16.584;2023-08-06T11:37:27;1.58;;;1.38;;
66575;SDS011;53428;47.686;16.584;2023-08-06T11:42:26;1.48;;;1.17;;
66575;SDS011;53428;47.686;16.584;2023-08-06T11:47:30;1.48;;;1.10;;
66575;SDS011;53428;47.686;16.584;2023-08-06T11:52:29;0.85;;;0.85;;
66575;SDS011;53428;47.686;16.584;2023-08-06T11:57:31;1.13;;;1.00;;
66575;SDS011;53428;47.686;16.584;2023-08-06T12:02:32;3.03;;;1.00;;
66575;SDS011;53428;47.686;16.584;2023-08-06T12:07:37;2.53;;;1.55;;
66575;SDS011;53428;47.686;16.584;2023-08-06T12:12:37;1.25;;;1.08;;
66575;SDS011;53428;47.686;16.584;2023-08-06T12:17:37;1.48;;;0.98;;
66575;SDS011;53428;47.686;16.584;2023-08-06T12:22:37;1.63;;;1.10;;
66575;SDS011;53428;47.686;16.584;2023-08-06T12:27:37;3.42;;;1.77;;
66575;SDS011;53428;47.686;16.584;2023-08-06T12:32:39;1.45;;;1.17;;
66575;SDS011;53428;47.686;16.584;2023-08-06T12:37:38;5.43;;;1.38;;
66575;SDS011;53428;47.686;16.584;2023-08-06T12:42:38;1.27;;;1.17;;
66575;SDS011;53428;47.686;16.584;2023-08-06T12:47:37;2.05;;;1.23;;
66575;SDS011;53428;47.686;16.584;2023-08-06T12:52:36;1.90;;;1.45;;
66575;SDS011;53428;47.686;16.584;2023-08-06T12:57:35;1.30;;;1.15;;
66575;SDS011;53428;47.686;16.584;2023-08-06T13:02:35;1.30;;;0.95;;
66575;SDS011;53428;47.686;16.584;2023-08-06T13:07:34;3.90;;;1.40;;
66575;SDS011;53428;47.686;16.584;2023-08-06T13:12:34;2.22;;;1.52;;
66575;SDS011;53428;47.686;16.584;2023-08-06T13:17:34;3.45;;;1.48;;
66575;SDS011;53428;47.686;16.584;2023-08-06T13:22:33;2.67;;;1.17;;
66575;SDS011;53428;47.686;16.584;2023-08-06T13:27:33;1.73;;;1.20;;
66575;SDS011;53428;47.686;16.584;2023-08-06T13:32:32;1.60;;;1.05;;
66575;SDS011;53428;47.686;16.584;2023-08-06T13:37:32;4.35;;;1.50;;
66575;SDS011;53428;47.686;16.584;2023-08-06T13:42:32;7.15;;;1.05;;
66575;SDS011;53428;47.686;16.584;2023-08-06T13:47:32;6.93;;;1.42;;
66575;SDS011;53428;47.686;16.584;2023-08-06T13:52:31;1.60;;;0.98;;
66575;SDS011;53428;47.686;16.584;2023-08-06T13:57:31;2.05;;;1.20;;
66575;SDS011;53428;47.686;16.584;2023-08-06T14:02:31;4.00;;;1.30;;
66575;SDS011;53428;47.686;16.584;2023-08-06T14:07:31;1.50;;;0.93;;
66575;SDS011;53428;47.686;16.584;2023-08-06T14:12:30;1.00;;;0.90;;
66575;SDS011;53428;47.686;16.584;2023-08-06T14:17:30;1.33;;;1.00;;
66575;SDS011;53428;47.686;16.584;2023-08-06T14:22:30;0.90;;;0.70;;
66575;SDS011;53428;47.686;16.584;2023-08-06T14:27:30;3.17;;;0.98;;
66575;SDS011;53428;47.686;16.584;2023-08-06T14:32:30;0.85;;;0.63;;
66575;SDS011;53428;47.686;16.584;2023-08-06T14:37:30;0.70;;;0.70;;
66575;SDS011;53428;47.686;16.584;2023-08-06T14:42:30;1.17;;;0.80;;
66575;SDS011;53428;47.686;16.584;2023-08-06T14:47:29;1.38;;;0.52;;
66575;SDS011;53428;47.686;16.584;2023-08-06T14:52:29;0.55;;;0.47;;
66575;SDS011;53428;47.686;16.584;2023-08-06T14:57:30;1.05;;;0.95;;
66575;SDS011;53428;47.686;16.584;2023-08-06T15:02:30;1.05;;;0.77;;
66575;SDS011;53428;47.686;16.584;2023-08-06T15:07:30;1.13;;;0.70;;
66575;SDS011;53428;47.686;16.584;2023-08-06T15:12:34;0.93;;;0.60;;
66575;SDS011;53428;47.686;16.584;2023-08-06T15:17:34;0.95;;;0.40;;
66575;SDS011;53428;47.686;16.584;2023-08-06T15:22:33;0.43;;;0.43;;
66575;SDS011;53428;47.686;16.584;2023-08-06T15:27:33;0.88;;;0.30;;
66575;SDS011;53428;47.686;16.584;2023-08-06T15:32:34;6.78;;;0.43;;
66575;SDS011;53428;47.686;16.584;2023-08-06T15:37:33;1.42;;;0.38;;
66575;SDS011;53428;47.686;16.584;2023-08-06T15:42:33;0.35;;;0.30;;
66575;SDS011;53428;47.686;16.584;2023-08-06T15:47:33;0.30;;;0.30;;
66575;SDS011;53428;47.686;16.584;2023-08-06T15:52:38;0.40;;;0.40;;
66575;SDS011;53428;47.686;16.584;2023-08-06T15:57:38;0.35;;;0.32;;
66575;SDS011;53428;47.686;16.584;2023-08-06T16:02:39;0.45;;;0.30;;
66575;SDS011;53428;47.686;16.584;2023-08-06T16:07:39;2.05;;;0.25;;
66575;SDS011;53428;47.686;16.584;2023-08-06T16:12:39;0.20;;;0.20;;
66575;SDS011;53428;47.686;16.584;2023-08-06T16:17:38;0.30;;;0.20;;
66575;SDS011;53428;47.686;16.584;2023-08-06T16:22:38;0.15;;;0.15;;
66575;SDS011;53428;47.686;16.584;2023-08-06T16:27:38;0.30;;;0.30;;
66575;SDS011;53428;47.686;16.584;2023-08-06T16:32:39;0.03;;;0.03;;
66575;SDS011;53428;47.686;16.584;2023-08-06T16:37:38;0.20;;;0.20;;
66575;SDS011;53428;47.686;16.584;2023-08-06T16:42:38;1.65;;;0.60;;
66575;SDS011;53428;47.686;16.584;2023-08-06T16:47:37;1.20;;;0.30;;
66575;SDS011;53428;47.686;16.584;2023-08-06T16:52:37;0.40;;;0.40;;
66575;SDS011;53428;47.686;16.584;2023-08-06T16:57:36;0.40;;;0.30;;
66575;SDS011;53428;47.686;16.584;2023-08-06T17:02:36;0.28;;;0.20;;
66575;SDS011;53428;47.686;16.584;2023-08-06T17:07:36;0.25;;;0.25;;
66575;SDS011;53428;47.686;16.584;2023-08-06T17:12:35;0.60;;;0.38;;
66575;SDS011;53428;47.686;16.584;2023-08-06T17:17:35;0.20;;;0.20;;
66575;SDS011;53428;47.686;16.584;2023-08-06T17:22:35;0.00;;;0.00;;
66575;SDS011;53428;47.686;16.584;2023-08-06T17:27:35;0.20;;;0.20;;
66575;SDS011;53428;47.686;16.584;2023-08-06T17:32:34;0.30;;;0.30;;
66575;SDS011;53428;47.686;16.584;2023-08-06T17:37:34;1.38;;;0.20;;
66575;SDS011;53428;47.686;16.584;2023-08-06T17:42:35;0.30;;;0.30;;
66575;SDS011;53428;47.686;16.584;2023-08-06T17:47:59;0.63;;;0.22;;
66575;SDS011;53428;47.686;16.584;2023-08-06T17:52:58;1.85;;;0.52;;
66575;SDS011;53428;47.686;16.584;2023-08-06T17:57:58;1.75;;;0.20;;
66575;SDS011;53428;47.686;16.584;2023-08-06T18:02:58;0.10;;;0.10;;
66575;SDS011;53428;47.686;16.584;2023-08-06T18:08:01;0.30;;;0.30;;
66575;SDS011;53428;47.686;16.584;2023-08-06T18:13:02;0.22;;;0.22;;
66575;SDS011;53428;47.686;16.584;2023-08-06T18:18:02;0.60;;;0.47;;
66575;SDS011;53428;47.686;16.584;2023-08-06T18:23:02;0.45;;;0.40;;
66575;SDS011;53428;47.686;16.584;2023-08-06T18:28:03;0.10;;;0.10;;
66575;SDS011;53428;47.686;16.584;2023-08-06T18:33:03;0.10;;;0.10;;
66575;SDS011;53428;47.686;16.584;2023-08-06T18:38:03;0.63;;;0.40;;
66575;SDS011;53428;47.686;16.584;2023-08-06T18:43:05;0.20;;;0.20;;
66575;SDS011;53428;47.686;16.584;2023-08-06T18:48:07;0.13;;;0.13;;
66575;SDS011;53428;47.686;16.584;2023-08-06T18:53:06;0.10;;;0.10;;
66575;SDS011;53428;47.686;16.584;2023-08-06T18:58:06;0.10;;;0.10;;
66575;SDS011;53428;47.686;16.584;2023-08-06T19:03:08;0.20;;;0.20;;
66575;SDS011;53428;47.686;16.584;2023-08-06T19:08:08;0.25;;;0.25;;
66575;SDS011;53428;47.686;16.584;2023-08-06T19:13:10;0.00;;;0.00;;
66575;SDS011;53428;47.686;16.584;2023-08-06T19:18:11;0.85;;;0.32;;
66575;SDS011;53428;47.686;16.584;2023-08-06T19:23:13;0.10;;;0.10;;
66575;SDS011;53428;47.686;16.584;2023-08-06T19:28:17;0.20;;;0.20;;
66575;SDS011;53428;47.686;16.584;2023-08-06T19:33:19;2.97;;;0.20;;
66575;SDS011;53428;47.686;16.584;2023-08-06T19:38:21;0.00;;;0.00;;
66575;SDS011;53428;47.686;16.584;2023-08-06T19:43:22;3.50;;;0.10;;
66575;SDS011;53428;47.686;16.584;2023-08-06T19:48:22;0.00;;;0.00;;
66575;SDS011;53428;47.686;16.584;2023-08-06T19:53:22;0.05;;;0.05;;
66575;SDS011;53428;47.686;16.584;2023-08-06T19:58:26;0.10;;;0.10;;
66575;SDS011;53428;47.686;16.584;2023-08-06T20:03:26;0.03;;;0.03;;
66575;SDS011;53428;47.686;16.584;2023-08-06T20:08:33;3.92;;;0.20;;
66575;SDS011;53428;47.686;16.584;2023-08-06T20:13:34;0.00;;;0.00;;
66575;SDS011;53428;47.686;16.584;2023-08-06T20:18:35;0.10;;;0.10;;
66575;SDS011;53428;47.686;16.584;2023-08-06T20:23:34;0.55;;;0.20;;
66575;SDS011;53428;47.686;16.584;2023-08-06T20:28:34;0.65;;;0.65;;
66575;SDS011;53428;47.686;16.584;2023-08-06T20:33:34;0.00;;;0.00;;
66575;SDS011;53428;47.686;16.584;2023-08-06T20:38:36;0.10;;;0.10;;
66575;SDS011;53428;47.686;16.584;2023-08-06T20:43:37;0.00;;;0.00;;
66575;SDS011;53428;47.686;16.584;2023-08-06T20:48:37;0.20;;;0.10;;
66575;SDS011;53428;47.686;16.584;2023-08-06T20:53:36;1.85;;;0.30;;
66575;SDS011;53428;47.686;16.584;2023-08-06T20:58:36;0.30;;;0.20;;
66575;SDS011;53428;47.686;16.584;2023-08-06T21:03:35;0.00;;;0.00;;
66575;SDS011;53428;47.686;16.584;2023-08-06T21:08:35;0.20;;;0.20;;
66575;SDS011;53428;47.686;16.584;2023-08-06T21:13:35;0.15;;;0.15;;
66575;SDS011;53428;47.686;16.584;2023-08-06T21:18:34;1.75;;;0.25;;
66575;SDS011;53428;47.686;16.584;2023-08-06T21:23:33;0.40;;;0.20;;
66575;SDS011;53428;47.686;16.584;2023-08-06T21:28:33;0.08;;;0.08;;
66575;SDS011;53428;47.686;16.584;2023-08-06T21:33:34;0.00;;;0.00;;
66575;SDS011;53428;47.686;16.584;2023-08-06T21:38:34;0.32;;;0.15;;
66575;SDS011;53428;47.686;16.584;2023-08-06T21:43:36;0.10;;;0.10;;
66575;SDS011;53428;47.686;16.584;2023-08-06T21:48:37;0.30;;;0.30;;
66575;SDS011;53428;47.686;16.584;2023-08-06T21:53:38;0.22;;;0.22;;
66575;SDS011;53428;47.686;16.584;2023-08-06T21:58:41;0.10;;;0.10;;
66575;SDS011;53428;47.686;16.584;2023-08-06T22:03:42;0.10;;;0.10;;
66575;SDS011;53428;47.686;16.584;2023-08-06T22:08:42;0.10;;;0.10;;
66575;SDS011;53428;47.686;16.584;2023-08-06T22:13:41;0.00;;;0.00;;
66575;SDS011;53428;47.686;16.584;2023-08-06T22:18:40;0.20;;;0.10;;
66575;SDS011;53428;47.686;16.584;2023-08-06T22:23:41;0.10;;;0.10;;
66575;SDS011;53428;47.686;16.584;2023-08-06T22:28:41;0.30;;;0.30;;
66575;SDS011;53428;47.686;16.584;2023-08-06T22:33:41;1.67;;;0.50;;
66575;SDS011;53428;47.686;16.584;2023-08-06T22:38:40;0.55;;;0.20;;
66575;SDS011;53428;47.686;16.584;2023-08-06T22:43:40;0.30;;;0.10;;
66575;SDS011;53428;47.686;16.584;2023-08-06T22:48:39;0.40;;;0.40;;
66575;SDS011;53428;47.686;16.584;2023-08-06T22:53:38;0.40;;;0.40;;
66575;SDS011;53428;47.686;16.584;2023-08-06T22:58:38;0.43;;;0.30;;
66575;SDS011;53428;47.686;16.584;2023-08-06T23:03:37;0.40;;;0.40;;
66575;SDS011;53428;47.686;16.584;2023-08-06T23:08:37;0.20;;;0.20;;
66575;SDS011;53428;47.686;16.584;2023-08-06T23:13:36;0.47;;;0.38;;
66575;SDS011;53428;47.686;16.584;2023-08-06T23:18:35;0.28;;;0.22;;
66575;SDS011;53428;47.686;16.584;2023-08-06T23:23:34;1.33;;;1.15;;
66575;SDS011;53428;47.686;16.584;2023-08-06T23:28:34;0.30;;;0.30;;
66575;SDS011;53428;47.686;16.584;2023-08-06T23:33:33;0.22;;;0.22;;
66575;SDS011;53428;47.686;16.584;2023-08-06T23:38:32;0.30;;;0.30;;
66575;SDS011;53428;47.686;16.584;2023-08-06T23:43:32;0.10;;;0.10;;
66575;SDS011;53428;47.686;16.584;2023-08-06T23:48:31;0.00;;;0.00;;
66575;SDS011;53428;47.686;16.584;2023-08-06T23:53:30;0.10;;;0.10;;
66575;SDS011;53428;47.686;16.584;2023-08-06T23:58:30;0.38;;;0.38;;
